Time;durP1;ratioP1;P1;durP2;ratioP2;P2;SDS_P1;SDS_P2;PMS_P1;PMS_P2;Temp;Humidity;BMP_temperature;BMP_pressure;BME280_temperature;BME280_humidity;BME280_pressure;Samples;Min_cycle;Max_cycle;Signal;HPM_P1;HPM_P2
2021/11/09 00:01:21;;;;;;;21.55;10.88;;;3.10;42.50;;;;;;5116566;27;20043;-69
2021/11/09 00:04:00;;;;;;;18.98;10.85;;;3.00;43.00;;;;;;5103092;27;20108;-69
2021/11/09 00:06:33;;;;;;;26.13;10.00;;;3.10;43.50;;;;;;5117665;27;20051;-70
2021/11/09 00:09:07;;;;;;;18.27;10.50;;;3.10;43.70;;;;;;5114350;27;20100;-69
2021/11/09 00:11:37;;;;;;;21.38;10.60;;;3.10;43.60;;;;;;5100551;28;20490;-69
2021/11/09 00:14:05;;;;;;;22.17;10.13;;;3.10;43.70;;;;;;5112974;27;20502;-69
2021/11/09 00:16:34;;;;;;;20.80;10.57;;;3.10;43.60;;;;;;5114531;27;20505;-69
2021/11/09 00:19:04;;;;;;;24.35;11.23;;;3.10;43.80;;;;;;5115558;27;20282;-69
2021/11/09 00:21:36;;;;;;;20.08;10.85;;;3.10;43.40;;;;;;5118015;27;20497;-69
2021/11/09 00:24:05;;;;;;;24.38;10.73;;;3.20;43.70;;;;;;5111688;27;20510;-69
2021/11/09 00:26:36;;;;;;;17.40;10.25;;;3.30;44.10;;;;;;5123978;27;20043;-69
2021/11/09 00:29:04;;;;;;;21.90;10.70;;;3.20;43.90;;;;;;5113649;27;20066;-69
2021/11/09 00:31:33;;;;;;;26.95;10.93;;;3.20;43.90;;;;;;5120862;27;20126;-69
2021/11/09 00:34:04;;;;;;;23.30;10.60;;;3.30;44.30;;;;;;5114830;27;20058;-69
2021/11/09 00:36:36;;;;;;;22.42;11.90;;;3.20;43.80;;;;;;5112690;27;20047;-70
2021/11/09 00:39:06;;;;;;;25.02;12.57;;;3.20;43.70;;;;;;5119238;27;20066;-69
2021/11/09 00:41:34;;;;;;;21.40;12.13;;;3.20;43.90;;;;;;5099295;28;20088;-69
2021/11/09 00:44:06;;;;;;;18.83;11.25;;;3.30;43.90;;;;;;5113749;27;20101;-69
2021/11/09 00:46:35;;;;;;;23.75;12.15;;;3.30;43.60;;;;;;5119321;27;20048;-69
2021/11/09 00:49:05;;;;;;;35.47;12.55;;;3.20;43.00;;;;;;5112373;28;20058;-69
2021/11/09 00:51:36;;;;;;;25.85;11.10;;;3.20;44.00;;;;;;5115488;27;20087;-68
2021/11/09 00:54:05;;;;;;;23.67;11.50;;;3.20;42.90;;;;;;5120765;27;20039;-69
2021/11/09 00:56:35;;;;;;;25.42;11.93;;;3.20;42.60;;;;;;5114173;27;20043;-70
2021/11/09 00:59:03;;;;;;;26.27;12.45;;;3.20;42.50;;;;;;5099594;27;20456;-69
2021/11/09 01:01:37;;;;;;;27.25;12.25;;;3.10;42.20;;;;;;5122352;27;20054;-69
2021/11/09 01:04:10;;;;;;;23.67;11.65;;;3.20;42.20;;;;;;5115044;27;20044;-69
2021/11/09 01:06:39;;;;;;;29.02;13.07;;;3.20;42.30;;;;;;5126096;27;20122;-69
2021/11/09 01:09:07;;;;;;;28.08;12.25;;;3.30;42.50;;;;;;5116244;27;20043;-69
2021/11/09 01:11:36;;;;;;;26.63;13.15;;;3.30;42.50;;;;;;5118876;27;20445;-70
2021/11/09 01:14:07;;;;;;;25.90;12.32;;;3.50;42.80;;;;;;5100763;27;20032;-69
2021/11/09 01:16:36;;;;;;;28.40;14.60;;;3.50;42.60;;;;;;5120155;27;20047;-69
2021/11/09 01:19:10;;;;;;;22.90;13.93;;;3.60;41.90;;;;;;5111920;27;20036;-69
2021/11/09 01:21:41;;;;;;;26.73;13.85;;;3.70;41.20;;;;;;5124326;27;20590;-68
2021/11/09 01:24:14;;;;;;;28.70;15.27;;;3.80;41.20;;;;;;5083775;27;20047;-70
2021/11/09 01:26:45;;;;;;;26.63;13.73;;;3.80;41.20;;;;;;5121562;27;20100;-69
2021/11/09 01:29:15;;;;;;;26.92;14.07;;;3.90;39.90;;;;;;5119006;27;20069;-69
2021/11/09 01:31:45;;;;;;;34.65;14.00;;;3.80;38.00;;;;;;5119175;27;20059;-69
2021/11/09 01:34:14;;;;;;;29.98;12.70;;;3.80;37.50;;;;;;5118379;27;20116;-69
2021/11/09 01:36:43;;;;;;;23.50;11.68;;;3.90;37.70;;;;;;5122692;27;20635;-70
2021/11/09 01:39:11;;;;;;;23.85;12.90;;;3.80;36.80;;;;;;5116008;27;20098;-69
2021/11/09 01:41:40;;;;;;;22.75;13.23;;;3.80;37.00;;;;;;5121264;27;20032;-69
2021/11/09 01:44:09;;;;;;;22.45;12.10;;;3.80;37.20;;;;;;5117554;27;20047;-69
2021/11/09 01:46:41;;;;;;;24.67;12.63;;;3.80;37.00;;;;;;5117258;27;20051;-69
2021/11/09 01:49:10;;;;;;;24.17;13.25;;;3.80;37.00;;;;;;5113059;27;20096;-69
2021/11/09 01:51:40;;;;;;;26.13;13.30;;;3.80;36.90;;;;;;5123170;27;20046;-69
2021/11/09 01:54:09;;;;;;;23.85;12.43;;;3.90;37.00;;;;;;5118709;27;20545;-69
2021/11/09 01:56:41;;;;;;;24.08;12.93;;;3.90;35.40;;;;;;5095533;27;20054;-69
2021/11/09 01:59:11;;;;;;;24.30;12.35;;;4.00;36.00;;;;;;5112698;27;20171;-70
2021/11/09 02:01:39;;;;;;;17.55;11.15;;;3.90;34.50;;;;;;5118822;27;20043;-69
2021/11/09 02:04:13;;;;;;;21.50;11.07;;;3.90;35.30;;;;;;5118201;27;20053;-69
2021/11/09 02:06:42;;;;;;;22.27;11.38;;;3.90;35.00;;;;;;5115573;27;20051;-69
2021/11/09 02:09:13;;;;;;;20.63;11.20;;;3.90;34.20;;;;;;5116385;27;20452;-69
2021/11/09 02:11:42;;;;;;;21.73;12.13;;;3.90;34.00;;;;;;5104544;27;20096;-69
2021/11/09 02:14:13;;;;;;;23.38;12.00;;;3.90;35.40;;;;;;5115327;27;20035;-69
2021/11/09 02:16:44;;;;;;;25.73;11.70;;;3.80;34.90;;;;;;5122283;27;20064;-69
2021/11/09 02:19:13;;;;;;;21.90;11.75;;;3.90;35.10;;;;;;5115620;27;20401;-69
2021/11/09 02:21:43;;;;;;;21.65;12.40;;;3.80;34.50;;;;;;5118605;27;20035;-69
2021/11/09 02:24:11;;;;;;;24.13;11.00;;;3.80;34.90;;;;;;5121110;27;20051;-70
2021/11/09 02:26:40;;;;;;;17.67;10.48;;;3.80;35.20;;;;;;5116008;27;20043;-69
2021/11/09 02:29:10;;;;;;;19.52;10.93;;;3.90;36.30;;;;;;5116256;27;20047;-69
2021/11/09 02:31:38;;;;;;;22.92;12.00;;;4.00;36.50;;;;;;5124247;27;20043;-69
2021/11/09 02:34:09;;;;;;;24.67;11.45;;;4.00;35.80;;;;;;5113538;27;20047;-69
2021/11/09 02:36:43;;;;;;;24.85;11.25;;;3.90;33.90;;;;;;5118479;27;20044;-69
2021/11/09 02:39:14;;;;;;;19.88;11.40;;;3.80;33.00;;;;;;5113002;27;20065;-69
2021/11/09 02:41:42;;;;;;;17.83;10.38;;;3.80;34.20;;;;;;5114256;27;20092;-69
2021/11/09 02:44:10;;;;;;;25.23;10.80;;;3.90;33.20;;;;;;5120336;27;20066;-69
2021/11/09 02:46:49;;;;;;;20.30;10.20;;;3.80;32.90;;;;;;5118619;27;20181;-68
2021/11/09 02:49:22;;;;;;;19.02;10.77;;;3.80;33.50;;;;;;5108252;27;20047;-68
2021/11/09 02:51:54;;;;;;;20.60;10.82;;;3.70;33.50;;;;;;5127207;27;20047;-68
2021/11/09 02:54:26;;;;;;;24.48;11.45;;;3.60;34.00;;;;;;5114975;27;20047;-69
2021/11/09 02:56:58;;;;;;;24.08;11.45;;;3.60;34.60;;;;;;5104705;27;20138;-70
2021/11/09 03:02:29;;;;;;;21.05;10.73;;;3.40;34.70;;;;;;5104701;27;20045;-70
2021/11/09 03:05:03;;;;;;;22.13;10.98;;;3.40;35.30;;;;;;5116303;27;20079;-70
2021/11/09 03:07:38;;;;;;;23.38;12.48;;;3.30;35.00;;;;;;5123063;27;20142;-70
2021/11/09 03:10:19;;;;;;;19.90;10.60;;;3.30;36.20;;;;;;5113131;27;20047;-70
2021/11/09 03:12:50;;;;;;;18.10;10.63;;;3.20;36.40;;;;;;5117410;27;20031;-69
2021/11/09 03:15:25;;;;;;;20.13;11.43;;;3.20;37.50;;;;;;5118510;27;20099;-70
2021/11/09 03:17:56;;;;;;;24.65;12.45;;;3.10;37.70;;;;;;5114026;27;20713;-70
2021/11/09 03:20:31;;;;;;;27.17;12.85;;;3.00;38.00;;;;;;5078681;28;20059;-69
2021/11/09 03:39:59;;;;;;;21.65;10.90;;;3.00;38.50;;;;;;5124614;27;20043;-70
2021/11/09 03:40:10;;;;;;;18.52;10.65;;;2.70;39.60;;;;;;5116357;27;20050;-69
2021/11/09 03:45:30;;;;;;;21.23;10.40;;;2.70;40.30;;;;;;5120653;27;20047;-69
2021/11/09 03:48:04;;;;;;;22.75;11.90;;;2.60;40.50;;;;;;5073956;27;20035;-69
2021/11/09 03:50:39;;;;;;;19.27;11.27;;;2.60;42.10;;;;;;5117967;27;20104;-69
2021/11/09 03:53:15;;;;;;;24.48;12.20;;;2.50;43.30;;;;;;5124910;27;20122;-70
2021/11/09 03:58:39;;;;;;;23.27;12.35;;;2.40;45.10;;;;;;5101616;27;20571;-70
2021/11/09 04:01:10;;;;;;;23.20;12.18;;;2.30;45.60;;;;;;5119807;27;20043;-69
2021/11/09 04:06:32;;;;;;;19.55;11.57;;;2.30;47.30;;;;;;5123143;27;20051;-68
2021/11/09 04:09:06;;;;;;;20.40;12.27;;;2.30;48.00;;;;;;5116373;27;20043;-68
2021/11/09 04:11:48;;;;;;;16.77;10.70;;;2.20;47.90;;;;;;5102519;27;20044;-69
2021/11/09 04:14:27;;;;;;;26.33;12.02;;;2.10;48.00;;;;;;5123895;27;20053;-68
2021/11/09 04:17:03;;;;;;;22.35;13.23;;;2.10;47.90;;;;;;5123098;27;20392;-69
2021/11/09 04:19:41;;;;;;;19.55;11.70;;;2.10;48.30;;;;;;5122199;27;20225;-68
2021/11/09 04:28:04;;;;;;;22.23;10.98;;;2.10;49.10;;;;;;5116542;27;20054;-69
2021/11/09 04:30:51;;;;;;;23.02;12.48;;;2.10;49.30;;;;;;5121071;27;20088;-69
2021/11/09 04:53:20;;;;;;;22.40;12.57;;;2.00;49.10;;;;;;5130572;27;20498;-69
2021/11/09 05:01:51;;;;;;;29.73;14.32;;;2.10;49.60;;;;;;5127412;27;20069;-69
2021/11/09 05:10:06;;;;;;;28.05;14.05;;;2.10;48.00;;;;;;5121284;27;20050;-69
2021/11/09 05:12:38;;;;;;;27.40;13.35;;;2.10;48.70;;;;;;5131543;27;20039;-69
2021/11/09 05:15:07;;;;;;;28.80;15.18;;;2.10;48.00;;;;;;5127232;27;20035;-70
2021/11/09 05:17:36;;;;;;;30.30;16.73;;;2.10;48.00;;;;;;5131011;27;20125;-69
2021/11/09 05:20:07;;;;;;;31.98;15.77;;;2.20;48.60;;;;;;5125033;27;20599;-69
2021/11/09 05:22:37;;;;;;;27.38;16.17;;;2.30;48.90;;;;;;5128609;27;20027;-69
2021/11/09 05:25:06;;;;;;;36.85;16.65;;;2.30;48.60;;;;;;5126740;27;20066;-69
2021/11/09 05:27:35;;;;;;;28.75;17.13;;;2.30;48.10;;;;;;5130197;27;20047;-68
2021/11/09 05:30:10;;;;;;;27.42;16.23;;;2.30;48.10;;;;;;5125284;27;20413;-69
2021/11/09 05:32:42;;;;;;;28.30;15.68;;;2.20;48.00;;;;;;5128869;27;20043;-68
2021/11/09 05:35:14;;;;;;;30.10;16.58;;;2.20;48.00;;;;;;5129413;27;20195;-69
2021/11/09 05:37:45;;;;;;;26.27;16.20;;;2.20;48.00;;;;;;5130023;27;20284;-69
2021/11/09 05:40:14;;;;;;;30.63;15.95;;;2.20;48.00;;;;;;5125897;27;20039;-68
2021/11/09 05:42:45;;;;;;;32.30;16.25;;;2.10;47.90;;;;;;5127903;27;20035;-68
2021/11/09 05:45:17;;;;;;;32.10;16.88;;;2.20;48.00;;;;;;5124526;27;20076;-69
2021/11/09 05:47:48;;;;;;;33.15;16.67;;;2.10;47.20;;;;;;5101438;27;20154;-68
2021/11/09 05:50:16;;;;;;;26.75;14.73;;;2.10;47.40;;;;;;5101473;27;20138;-69
2021/11/09 05:52:44;;;;;;;29.88;15.60;;;2.00;47.00;;;;;;5105078;27;20039;-69
2021/11/09 05:55:12;;;;;;;27.52;13.98;;;1.90;46.80;;;;;;5077801;27;20059;-69
2021/11/09 05:57:44;;;;;;;28.20;14.00;;;1.90;46.30;;;;;;5119843;27;20044;-69
2021/11/09 06:00:14;;;;;;;23.55;15.68;;;1.90;47.60;;;;;;5110719;27;20126;-69
2021/11/09 06:02:42;;;;;;;22.88;13.05;;;1.80;46.90;;;;;;5049984;27;20046;-69
2021/11/09 06:05:14;;;;;;;27.23;13.63;;;1.80;46.80;;;;;;5109557;27;20040;-69
2021/11/09 06:07:43;;;;;;;27.30;14.20;;;1.70;46.10;;;;;;5119154;27;20053;-69
2021/11/09 06:10:11;;;;;;;27.52;14.52;;;1.70;46.00;;;;;;5090437;27;20054;-69
2021/11/09 06:12:40;;;;;;;24.80;14.63;;;1.60;46.50;;;;;;5117621;27;20063;-69
2021/11/09 06:15:09;;;;;;;26.85;13.82;;;1.60;47.30;;;;;;5113124;27;20047;-69
2021/11/09 06:17:40;;;;;;;31.02;14.82;;;1.50;46.70;;;;;;5116149;27;20035;-69
2021/11/09 06:20:11;;;;;;;23.92;14.50;;;1.50;47.40;;;;;;5112507;27;20403;-68
2021/11/09 06:22:46;;;;;;;23.87;14.43;;;1.50;47.20;;;;;;5118144;27;20039;-69
2021/11/09 06:25:15;;;;;;;29.23;14.05;;;1.50;47.40;;;;;;5111691;27;20060;-68
2021/11/09 06:27:47;;;;;;;24.67;13.50;;;1.60;47.50;;;;;;5121241;27;20841;-68
2021/11/09 06:30:22;;;;;;;31.05;15.38;;;1.60;47.50;;;;;;5112394;27;20150;-69
2021/11/09 06:32:51;;;;;;;23.92;13.07;;;1.60;47.50;;;;;;5113270;27;20050;-69
2021/11/09 06:35:25;;;;;;;26.05;14.65;;;1.50;47.40;;;;;;5114344;27;20118;-69
2021/11/09 06:37:55;;;;;;;24.77;14.10;;;1.50;47.40;;;;;;5112848;27;20371;-69
2021/11/09 06:40:26;;;;;;;28.40;14.93;;;1.60;47.50;;;;;;5116879;27;20526;-69
2021/11/09 06:43:00;;;;;;;28.10;15.10;;;1.70;48.30;;;;;;5122895;27;20521;-69
2021/11/09 06:45:34;;;;;;;29.57;14.73;;;1.80;47.70;;;;;;5110868;27;20324;-70
2021/11/09 06:48:05;;;;;;;33.85;15.68;;;1.90;47.80;;;;;;5119200;27;20051;-69
2021/11/09 06:50:34;;;;;;;32.22;15.32;;;1.80;47.50;;;;;;5112279;27;20450;-70
2021/11/09 06:53:04;;;;;;;30.65;16.08;;;1.90;47.70;;;;;;5110929;27;20487;-70
2021/11/09 06:55:37;;;;;;;29.80;15.88;;;2.10;47.50;;;;;;5081549;27;20456;-70
2021/11/09 06:58:06;;;;;;;30.73;15.85;;;2.10;45.80;;;;;;5128419;27;20059;-69
2021/11/09 07:00:34;;;;;;;23.20;13.77;;;2.10;45.30;;;;;;5116197;27;20539;-70
2021/11/09 07:03:06;;;;;;;30.13;16.20;;;2.10;43.20;;;;;;5044948;27;20071;-69
2021/11/09 07:05:36;;;;;;;30.42;15.13;;;2.20;44.50;;;;;;5113158;27;20075;-70
2021/11/09 07:08:09;;;;;;;21.98;14.73;;;2.20;43.10;;;;;;5115121;27;20100;-70
2021/11/09 07:10:40;;;;;;;26.63;15.23;;;2.10;41.60;;;;;;5118381;27;20043;-70
2021/11/09 07:13:08;;;;;;;34.28;15.48;;;2.20;42.40;;;;;;5113984;27;20130;-70
2021/11/09 07:15:41;;;;;;;29.27;15.27;;;2.20;43.00;;;;;;5118148;27;20051;-70
2021/11/09 07:18:10;;;;;;;29.45;16.13;;;2.30;42.90;;;;;;5118789;27;20058;-70
2021/11/09 07:20:38;;;;;;;25.83;15.57;;;2.40;42.30;;;;;;5094471;27;20047;-70
2021/11/09 07:23:16;;;;;;;27.63;14.55;;;2.50;42.00;;;;;;5123316;27;20575;-69
2021/11/09 07:25:45;;;;;;;27.50;14.80;;;2.60;42.00;;;;;;5121633;27;20130;-71
2021/11/09 07:28:19;;;;;;;;;;;2.60;41.70;;;;;;5120052;27;20047;-70
2021/11/09 07:31:02;;;;;;;33.35;15.45;;;2.70;41.40;;;;;;5117747;27;19927;-70
2021/11/09 07:33:38;;;;;;;21.98;14.07;;;2.80;40.40;;;;;;5121000;27;20157;-70
2021/11/09 07:36:06;;;;;;;24.73;14.77;;;2.80;38.30;;;;;;5114265;27;20120;-70
2021/11/09 07:38:35;;;;;;;36.95;15.35;;;2.80;38.40;;;;;;5116899;27;20424;-70
2021/11/09 07:41:03;;;;;;;31.33;16.23;;;2.80;37.80;;;;;;5117372;27;20130;-71
2021/11/09 07:43:31;;;;;;;31.33;15.32;;;2.80;37.50;;;;;;5113800;27;20051;-70
2021/11/09 07:46:03;;;;;;;27.17;15.32;;;2.90;37.80;;;;;;5115920;27;20146;-70
2021/11/09 07:48:31;;;;;;;29.45;15.73;;;3.00;37.10;;;;;;5114307;27;20146;-70
2021/11/09 07:51:04;;;;;;;33.60;16.15;;;3.10;36.50;;;;;;5112854;27;20081;-69
2021/11/09 07:53:35;;;;;;;27.50;14.85;;;3.20;36.00;;;;;;5118801;27;20055;-71
2021/11/09 07:56:18;;;;;;;29.33;14.60;;;3.30;35.40;;;;;;5113502;27;20039;-70
2021/11/09 07:59:04;;;;;;;32.35;14.63;;;3.40;34.40;;;;;;5106555;27;20071;-70
2021/11/09 08:01:35;;;;;;;23.98;11.85;;;3.50;33.80;;;;;;5119489;27;20564;-71
2021/11/09 08:04:10;;;;;;;25.33;11.27;;;3.60;32.70;;;;;;5122492;27;20035;-71
2021/11/09 08:06:50;;;;;;;19.67;10.90;;;3.70;32.30;;;;;;5115442;27;20059;-71
2021/11/09 08:09:22;;;;;;;20.65;10.57;;;3.70;31.60;;;;;;5113591;27;20495;-70
2021/11/09 08:11:52;;;;;;;17.58;9.90;;;3.80;30.40;;;;;;5115339;27;20054;-69
2021/11/09 08:14:22;;;;;;;21.23;10.68;;;3.80;29.40;;;;;;5110083;27;20043;-69
2021/11/09 08:16:50;;;;;;;20.83;10.07;;;3.80;30.50;;;;;;5118989;27;20077;-69
2021/11/09 08:19:19;;;;;;;18.70;10.10;;;4.00;30.00;;;;;;5110573;27;20513;-70
2021/11/09 08:21:54;;;;;;;18.45;9.45;;;4.00;29.10;;;;;;5116777;27;20039;-69
2021/11/09 08:24:24;;;;;;;14.50;8.63;;;4.20;28.40;;;;;;5117985;27;20058;-70
2021/11/09 08:26:55;;;;;;;18.60;9.32;;;4.30;26.70;;;;;;5117539;27;20163;-69
2021/11/09 08:29:27;;;;;;;15.40;8.10;;;4.30;26.00;;;;;;5089351;28;20122;-69
2021/11/09 08:31:57;;;;;;;18.27;8.50;;;4.40;24.90;;;;;;5098379;28;20058;-70
2021/11/09 08:34:27;;;;;;;16.00;7.95;;;4.50;24.20;;;;;;5111644;28;20132;-69
2021/11/09 08:36:55;;;;;;;17.92;7.68;;;4.50;23.40;;;;;;5116826;28;20134;-69
2021/11/09 08:39:28;;;;;;;17.35;8.35;;;4.60;22.80;;;;;;5118852;27;20191;-70
2021/11/09 08:42:10;;;;;;;14.23;7.22;;;4.70;22.40;;;;;;5113977;27;20039;-71
2021/11/09 08:44:44;;;;;;;16.08;7.20;;;4.80;21.20;;;;;;5118537;27;20126;-70
2021/11/09 08:47:16;;;;;;;15.30;7.68;;;4.80;20.10;;;;;;5122807;28;20035;-70
2021/11/09 08:49:45;;;;;;;11.20;7.63;;;4.80;19.50;;;;;;5109818;27;20047;-71
2021/11/09 08:52:16;;;;;;;11.82;6.60;;;4.90;19.60;;;;;;5116047;27;20047;-70
2021/11/09 08:54:56;;;;;;;16.70;7.30;;;5.10;18.50;;;;;;5121325;27;20055;-70
2021/11/09 08:57:58;;;;;;;15.80;7.68;;;5.20;17.50;;;;;;5115740;27;20107;-70
2021/11/09 09:06:05;;;;;;;17.25;7.78;;;5.50;15.60;;;;;;5095421;27;20042;-70
2021/11/09 09:08:37;;;;;;;16.60;7.88;;;5.50;14.20;;;;;;5108460;28;20047;-70
2021/11/09 09:11:11;;;;;;;13.32;7.38;;;5.60;14.30;;;;;;5113635;28;20047;-70
2021/11/09 09:13:44;;;;;;;13.02;6.88;;;5.70;13.10;;;;;;5121487;27;20035;-70
2021/11/09 09:16:13;;;;;;;16.02;7.03;;;5.80;12.30;;;;;;5115273;27;20036;-70
2021/11/09 09:18:44;;;;;;;13.77;7.53;;;5.80;13.00;;;;;;5119298;27;20039;-70
2021/11/09 09:21:14;;;;;;;13.55;7.07;;;6.00;12.00;;;;;;5118907;27;20143;-69
2021/11/09 09:23:49;;;;;;;14.68;7.50;;;6.00;11.10;;;;;;5116581;27;20060;-71
2021/11/09 09:26:33;;;;;;;17.95;7.70;;;6.00;11.00;;;;;;5124976;27;20088;-70
2021/11/09 09:29:24;;;;;;;10.88;6.55;;;6.10;10.90;;;;;;5115286;27;20066;-70
2021/11/09 09:54:50;;;;;;;9.43;6.05;;;7.00;6.60;;;;;;5106137;27;20066;-70
2021/11/09 09:57:24;;;;;;;12.15;5.97;;;7.00;6.60;;;;;;5122568;27;20133;-70
2021/11/09 09:59:57;;;;;;;9.70;6.28;;;7.30;6.20;;;;;;5117131;27;20669;-70
2021/11/09 10:02:29;;;;;;;12.73;5.85;;;7.20;5.00;;;;;;5114792;27;20569;-71
2021/11/09 10:05:04;;;;;;;10.10;6.10;;;7.30;4.70;;;;;;5120901;27;20054;-70
2021/11/09 10:07:38;;;;;;;9.70;5.57;;;7.50;4.70;;;;;;5117952;27;20293;-70
2021/11/09 10:10:16;;;;;;;10.85;5.70;;;7.60;3.30;;;;;;5114613;27;20048;-70
2021/11/09 10:12:46;;;;;;;13.07;6.20;;;7.60;3.30;;;;;;5120059;27;20035;-69
2021/11/09 10:15:22;;;;;;;10.70;6.30;;;7.50;3.20;;;;;;5112953;27;20044;-70
2021/11/09 10:17:54;;;;;;;11.45;6.03;;;7.70;3.30;;;;;;5117703;27;20044;-70
2021/11/09 10:20:31;;;;;;;10.93;5.43;;;7.80;2.40;;;;;;5114131;27;20510;-70
2021/11/09 10:23:02;;;;;;;9.60;5.32;;;8.00;1.90;;;;;;5118151;27;20050;-70
2021/11/09 10:25:35;;;;;;;13.45;5.45;;;8.20;1.00;;;;;;5112557;27;20063;-71
2021/11/09 10:28:12;;;;;;;11.57;4.95;;;8.20;1.00;;;;;;5123944;27;20061;-70
2021/11/09 10:30:42;;;;;;;9.85;4.40;;;8.30;1.00;;;;;;5117980;27;20142;-69
2021/11/09 10:33:16;;;;;;;7.77;4.37;;;8.50;1.00;;;;;;5118281;27;20062;-70
2021/11/09 10:35:48;;;;;;;8.02;3.70;;;8.50;1.00;;;;;;5117016;27;20048;-70
2021/11/09 10:38:17;;;;;;;6.32;3.45;;;8.60;1.00;;;;;;5111860;27;20051;-70
2021/11/09 10:40:49;;;;;;;7.28;3.15;;;8.80;1.00;;;;;;5109031;27;20503;-70
2021/11/09 10:43:24;;;;;;;5.90;2.58;;;8.80;1.00;;;;;;5117476;27;20070;-69
2021/11/09 10:45:53;;;;;;;10.38;2.75;;;8.80;1.00;;;;;;5112637;27;20043;-70
2021/11/09 10:48:24;;;;;;;5.50;2.50;;;9.10;1.00;;;;;;5114555;27;20077;-69
2021/11/09 10:50:54;;;;;;;9.27;2.55;;;9.10;1.00;;;;;;5113646;27;20039;-68
2021/11/09 10:53:31;;;;;;;5.60;2.40;;;9.10;1.00;;;;;;5113720;27;20138;-69
2021/11/09 10:56:12;;;;;;;10.40;2.65;;;9.10;1.00;;;;;;5115971;27;20137;-69
2021/11/09 10:58:59;;;;;;;9.90;2.55;;;9.10;1.00;;;;;;5114546;27;20545;-69
2021/11/09 11:04:13;;;;;;;8.43;4.63;;;9.30;1.00;;;;;;5115896;27;20055;-69
2021/11/09 11:06:47;;;;;;;7.35;3.00;;;9.40;1.00;;;;;;5122951;27;20104;-70
2021/11/09 11:09:20;;;;;;;6.13;3.20;;;9.20;1.00;;;;;;5111881;27;20047;-68
2021/11/09 11:12:09;;;;;;;5.13;2.22;;;9.40;1.00;;;;;;5115248;27;20039;-68
2021/11/09 11:14:38;;;;;;;4.95;2.60;;;9.30;1.00;;;;;;5115557;27;20050;-69
2021/11/09 11:17:10;;;;;;;7.10;2.60;;;9.50;1.00;;;;;;5119852;27;20498;-69
2021/11/09 11:19:42;;;;;;;11.77;2.33;;;9.50;1.00;;;;;;5114925;27;20035;-69
2021/11/09 11:22:13;;;;;;;7.22;2.78;;;9.60;1.00;;;;;;5117589;27;20114;-70
2021/11/09 11:24:43;;;;;;;5.50;2.28;;;9.50;1.00;;;;;;5114294;27;20047;-70
2021/11/09 11:27:16;;;;;;;8.23;2.60;;;9.60;1.00;;;;;;5093324;27;20048;-69
2021/11/09 11:29:45;;;;;;;8.77;2.70;;;9.60;1.00;;;;;;5122037;27;20778;-69
2021/11/09 11:32:15;;;;;;;6.35;2.58;;;9.70;1.00;;;;;;5115194;27;20048;-69
2021/11/09 11:34:45;;;;;;;6.05;2.75;;;9.70;1.00;;;;;;5115695;27;20119;-68
2021/11/09 11:37:21;;;;;;;6.68;2.60;;;9.70;1.00;;;;;;5120735;27;20041;-68
2021/11/09 11:39:53;;;;;;;6.38;2.65;;;9.70;1.00;;;;;;5108374;27;20050;-69
2021/11/09 11:42:22;;;;;;;6.13;2.63;;;9.70;1.00;;;;;;5107675;27;20043;-69
2021/11/09 11:44:59;;;;;;;7.65;3.05;;;9.80;1.00;;;;;;5116008;27;20525;-68
2021/11/09 11:47:27;;;;;;;5.10;2.50;;;9.70;1.00;;;;;;5116154;27;20046;-68
2021/11/09 11:50:08;;;;;;;7.38;2.72;;;9.70;1.00;;;;;;5112300;27;20089;-68
2021/11/09 11:52:43;;;;;;;7.60;2.58;;;9.80;1.00;;;;;;5115849;27;20102;-68
2021/11/09 11:55:25;;;;;;;4.72;2.80;;;9.70;1.00;;;;;;5113808;27;20047;-68
2021/11/09 11:58:05;;;;;;;8.75;2.65;;;9.80;1.00;;;;;;5110385;27;20048;-70
2021/11/09 12:00:52;;;;;;;5.63;2.70;;;9.80;1.00;;;;;;5115085;27;20075;-69
2021/11/09 12:03:41;;;;;;;7.57;3.03;;;9.90;1.00;;;;;;5117622;27;20040;-68
2021/11/09 12:06:21;;;;;;;6.85;2.50;;;10.00;1.00;;;;;;5115730;27;20092;-70
2021/11/09 12:08:51;;;;;;;5.45;2.10;;;10.00;1.00;;;;;;5119525;27;20040;-70
2021/11/09 12:11:36;;;;;;;6.10;2.40;;;9.90;1.00;;;;;;5119879;27;20583;-69
2021/11/09 12:14:17;;;;;;;4.50;2.33;;;10.00;1.00;;;;;;5114685;27;20642;-69
2021/11/09 12:17:00;;;;;;;11.60;2.83;;;10.00;1.00;;;;;;5109503;27;20587;-71
2021/11/09 12:20:01;;;;;;;5.57;2.20;;;10.00;1.00;;;;;;5119604;27;20031;-68
2021/11/09 12:22:43;;;;;;;8.80;2.42;;;10.00;1.00;;;;;;5113949;27;20052;-70
2021/11/09 12:25:17;;;;;;;4.38;2.10;;;10.10;1.00;;;;;;5111375;27;20050;-69
2021/11/09 12:28:09;;;;;;;5.22;2.47;;;10.20;1.00;;;;;;5118934;27;20044;-69
2021/11/09 12:30:46;;;;;;;5.28;2.50;;;10.20;1.00;;;;;;5081234;28;20036;-69
2021/11/09 12:33:17;;;;;;;7.82;3.08;;;10.30;1.00;;;;;;5117078;27;20063;-70
2021/11/09 12:36:15;;;;;;;;;;;10.20;1.00;;;;;;5111450;27;20049;-68
2021/11/09 12:38:46;;;;;;;2.97;1.80;;;10.20;1.00;;;;;;5084094;27;19927;-70
2021/11/09 12:41:20;;;;;;;4.18;1.92;;;10.30;1.00;;;;;;5112781;28;20039;-69
2021/11/09 12:43:51;;;;;;;6.05;2.80;;;10.20;1.00;;;;;;5112315;27;20050;-69
2021/11/09 12:46:29;;;;;;;5.78;2.20;;;10.20;1.00;;;;;;5100114;27;20047;-70
2021/11/09 12:49:02;;;;;;;4.63;2.10;;;10.30;1.00;;;;;;5121017;27;20067;-69
2021/11/09 12:51:32;;;;;;;5.47;2.00;;;10.40;1.00;;;;;;5112244;27;20610;-69
2021/11/09 12:54:11;;;;;;;4.63;1.80;;;10.40;1.00;;;;;;5116718;27;20031;-70
2021/11/09 12:56:43;;;;;;;5.25;2.10;;;10.40;1.00;;;;;;5114621;27;20090;-68
2021/11/09 12:59:19;;;;;;;4.18;1.90;;;10.30;1.00;;;;;;5118382;27;20053;-69
2021/11/09 13:01:56;;;;;;;3.67;2.03;;;10.40;1.00;;;;;;5116723;27;20118;-70
2021/11/09 13:04:28;;;;;;;7.05;2.33;;;10.30;1.00;;;;;;5112665;27;20104;-70
2021/11/09 13:07:09;;;;;;;7.20;2.47;;;10.30;1.00;;;;;;5121777;27;20119;-69
2021/11/09 13:09:43;;;;;;;6.60;2.10;;;10.40;1.00;;;;;;5122817;27;20047;-69
2021/11/09 13:12:14;;;;;;;5.25;2.22;;;10.30;1.00;;;;;;5116843;27;20063;-69
2021/11/09 13:14:45;;;;;;;4.90;2.00;;;10.30;1.00;;;;;;5116199;27;20051;-69
2021/11/09 13:17:38;;;;;;;7.65;2.60;;;10.40;1.00;;;;;;5125217;27;20044;-68
2021/11/09 13:20:17;;;;;;;6.88;2.90;;;10.40;1.00;;;;;;5117297;27;20035;-69
2021/11/09 13:22:55;;;;;;;7.60;3.25;;;10.30;1.00;;;;;;5118183;27;20070;-69
2021/11/09 13:25:37;;;;;;;4.75;2.28;;;10.40;1.00;;;;;;5111508;27;20481;-69
2021/11/09 13:28:19;;;;;;;6.85;2.55;;;10.30;1.00;;;;;;5097304;27;20035;-69
2021/11/09 13:30:52;;;;;;;6.50;2.20;;;10.30;1.00;;;;;;5119805;27;20418;-69
2021/11/09 13:33:23;;;;;;;6.05;2.55;;;10.40;1.00;;;;;;5127446;27;20067;-69
2021/11/09 13:35:55;;;;;;;8.25;2.17;;;10.40;1.00;;;;;;5126189;27;20051;-68
2021/11/09 13:38:26;;;;;;;4.05;1.75;;;10.40;1.00;;;;;;5079172;27;20057;-68
2021/11/09 13:41:04;;;;;;;7.95;3.20;;;10.20;1.00;;;;;;5094168;27;20067;-69
2021/11/09 13:43:37;;;;;;;5.03;2.35;;;10.30;1.00;;;;;;5122599;27;20487;-68
2021/11/09 13:46:09;;;;;;;4.68;2.30;;;10.30;1.00;;;;;;5116572;27;20506;-68
2021/11/09 13:48:42;;;;;;;4.95;2.55;;;10.40;1.00;;;;;;5120227;27;20561;-71
2021/11/09 13:51:14;;;;;;;7.00;2.38;;;10.40;1.00;;;;;;5119422;27;20048;-67
2021/11/09 13:53:47;;;;;;;7.65;2.08;;;10.30;1.00;;;;;;5117122;27;20078;-67
2021/11/09 13:56:22;;;;;;;3.35;2.38;;;10.40;1.00;;;;;;5120134;27;20047;-68
2021/11/09 13:58:56;;;;;;;7.05;2.67;;;10.30;1.00;;;;;;5120514;27;20043;-67
2021/11/09 14:01:37;;;;;;;5.32;2.58;;;10.20;1.00;;;;;;5108227;27;20044;-67
2021/11/09 14:04:20;;;;;;;4.57;2.35;;;10.40;1.00;;;;;;5121275;27;20047;-67
2021/11/09 14:07:11;;;;;;;7.45;2.40;;;10.40;1.00;;;;;;5116902;27;20043;-66
2021/11/09 14:15:36;;;;;;;5.75;2.50;;;10.30;1.00;;;;;;5089348;27;20490;-69
2021/11/09 14:18:11;;;;;;;6.25;1.98;;;10.40;1.00;;;;;;5118001;27;20069;-68
2021/11/09 14:20:51;;;;;;;4.90;2.30;;;10.30;1.00;;;;;;5118018;27;20051;-66
2021/11/09 14:23:28;;;;;;;3.60;2.60;;;10.30;1.00;;;;;;5124038;27;20070;-67
2021/11/09 14:26:00;;;;;;;7.32;2.50;;;10.30;1.00;;;;;;5118053;27;20043;-67
2021/11/09 14:28:37;;;;;;;6.85;2.60;;;10.20;1.00;;;;;;5121835;27;20039;-66
2021/11/09 14:31:13;;;;;;;5.85;2.58;;;10.20;1.00;;;;;;5110584;27;20066;-66
2021/11/09 14:33:46;;;;;;;7.80;2.70;;;10.20;1.00;;;;;;5115882;27;20040;-66
2021/11/09 14:36:27;;;;;;;6.38;2.70;;;10.20;1.00;;;;;;5114834;27;20043;-66
2021/11/09 14:39:17;;;;;;;5.10;2.33;;;10.20;1.00;;;;;;5121460;27;20070;-67
2021/11/09 14:42:08;;;;;;;6.15;2.50;;;10.10;1.00;;;;;;5116495;27;20054;-68
2021/11/09 14:45:02;;;;;;;4.20;2.10;;;10.10;1.00;;;;;;5100994;27;20043;-67
2021/11/09 14:47:36;;;;;;;3.75;2.25;;;10.10;1.00;;;;;;5116350;27;20031;-67
2021/11/09 14:50:17;;;;;;;7.28;2.50;;;10.00;1.00;;;;;;5124719;27;20490;-67
2021/11/09 14:52:52;;;;;;;5.18;2.30;;;10.00;1.00;;;;;;5099505;27;20036;-66
2021/11/09 14:55:29;;;;;;;4.32;2.10;;;10.00;1.00;;;;;;5115453;27;20058;-66
2021/11/09 14:57:58;;;;;;;6.88;2.00;;;10.00;1.00;;;;;;5123996;27;20045;-67
2021/11/09 15:00:28;;;;;;;3.90;2.13;;;9.90;1.00;;;;;;5114846;27;20043;-65